Startpagina
METAR-TAF:

METAR-TAF

Vliegvelden :

Nörvenich, Duitsland

breedte: 50-50N, lengte: 006-40E, hoogte: 118 m

Actueel weer

Dit bericht is 33 minuten geleden gemaakt, om 23:20 UTC
Wind 5 kt uit het westzuidwesten
Temperatuur 13°C
Vochtigheid 72%
Druk 1026 hPa
Zicht 10 km of meer
Weinig wolken op 36000 ft

METAR: ETNN 122320Z 25005KT 9999 FEW360 13/08 Q1026 BLU+

Tijdstip: 01:53 (23:53 UTC)


TAF: ontbreekt

Waarnemingen en weersverwachtingen van meer dan 4000 vliegvelden (METAR en TAF).

De beschikbare stations zijn de gele en rode punten op de kaart.

Ga met uw muis naar het station om de naam te zien.

Klik dan om waarnemingen en weersverwachtingen te zien.

kaart wijzigen: klik op de groene knoppen met een zwart kruis om in te zoomen, op de groene knop met een streepje om uit te zoomen of op de groene pijlen voor aangrenzende kaarten.


METAR-TAF: